createdAt,value
2023-01-13T00:01:14.261Z,86.38
2023-01-13T00:03:41.250Z,86.18
2023-01-13T00:06:08.348Z,86.65
2023-01-13T00:08:35.784Z,86.94
2023-01-13T00:11:02.486Z,85.90
2023-01-13T00:13:29.391Z,85.74
2023-01-13T00:16:00.238Z,85.45
2023-01-13T00:18:27.186Z,85.68
2023-01-13T00:21:21.054Z,85.04
2023-01-13T00:23:48.186Z,84.88
2023-01-13T00:26:23.304Z,85.55
2023-01-13T00:28:50.122Z,85.98
2023-01-13T00:31:19.241Z,85.55
2023-01-13T00:33:48.256Z,85.63
2023-01-13T00:36:15.791Z,85.93
2023-01-13T00:38:45.715Z,86.75
2023-01-13T00:41:14.927Z,86.38
2023-01-13T00:43:41.947Z,87.00
2023-01-13T00:46:11.128Z,86.38
2023-01-13T00:48:38.010Z,86.12
2023-01-13T00:51:18.907Z,86.50
2023-01-13T00:53:50.185Z,87.10
2023-01-13T00:56:38.084Z,85.70
2023-01-13T00:59:06.529Z,85.05
2023-01-13T01:01:33.353Z,85.08
2023-01-13T01:04:00.243Z,84.95
2023-01-13T01:06:27.706Z,84.99
2023-01-13T01:08:55.523Z,84.86
2023-01-13T01:11:29.387Z,85.19
2023-01-13T01:13:57.829Z,85.06
2023-01-13T01:16:26.612Z,84.92
2023-01-13T01:18:54.560Z,84.77
2023-01-13T01:21:22.659Z,84.81
2023-01-13T01:23:49.496Z,85.50
2023-01-13T01:26:22.002Z,86.00
2023-01-13T01:28:48.937Z,87.06
2023-01-13T01:31:27.631Z,86.96
2023-01-13T01:33:55.098Z,86.04
2023-01-13T01:36:23.244Z,85.42
2023-01-13T01:38:50.415Z,85.82
2023-01-13T01:41:25.332Z,85.23
2023-01-13T01:43:59.944Z,85.32
2023-01-13T01:46:40.032Z,84.54
2023-01-13T01:49:30.626Z,84.98
2023-01-13T01:52:19.765Z,84.70
2023-01-13T01:55:14.956Z,84.45
2023-01-13T01:57:47.036Z,85.36
2023-01-13T02:00:14.261Z,85.15
2023-01-13T02:02:44.068Z,84.96
2023-01-13T02:05:11.239Z,84.62
2023-01-13T02:07:39.348Z,84.58
2023-01-13T02:10:09.066Z,84.50
2023-01-13T02:12:36.683Z,84.68
2023-01-13T02:15:16.431Z,84.83
2023-01-13T02:17:54.483Z,84.73
2023-01-13T02:21:12.344Z,85.24
2023-01-13T02:23:57.281Z,85.33
2023-01-13T02:26:48.713Z,85.73
2023-01-13T02:29:55.981Z,85.75
2023-01-13T02:32:49.919Z,85.16
2023-01-13T02:35:23.211Z,85.25
2023-01-13T02:37:50.645Z,85.08
2023-01-13T02:40:23.201Z,84.69
2023-01-13T02:43:37.415Z,84.78
2023-01-13T02:46:18.044Z,83.93
2023-01-13T02:48:46.066Z,84.60
2023-01-13T02:51:15.777Z,84.19
2023-01-13T02:54:21.903Z,84.04
2023-01-13T02:56:51.019Z,84.19
2023-01-13T02:59:19.499Z,84.11
2023-01-13T03:01:47.097Z,84.29
2023-01-13T03:04:15.056Z,83.91
2023-01-13T03:07:00.232Z,84.32
2023-01-13T03:09:39.814Z,84.20
2023-01-13T03:12:31.853Z,84.47
2023-01-13T03:15:25.107Z,84.55
2023-01-13T03:18:24.212Z,84.31
2023-01-13T03:21:21.274Z,84.23
2023-01-13T03:23:57.516Z,84.50
2023-01-13T03:26:42.462Z,84.58
2023-01-13T03:29:49.428Z,84.30
2023-01-13T03:32:32.709Z,83.92
2023-01-13T03:35:02.379Z,84.54
2023-01-13T03:37:33.564Z,84.21
2023-01-13T03:40:16.234Z,83.65
2023-01-13T03:43:05.063Z,84.05
2023-01-13T03:45:33.391Z,84.36
2023-01-13T03:48:03.573Z,83.84
2023-01-13T03:50:35.013Z,83.82
2023-01-13T03:53:06.671Z,84.21
2023-01-13T03:55:39.713Z,84.51
2023-01-13T03:58:17.767Z,84.56
2023-01-13T04:00:50.707Z,84.70
2023-01-13T04:03:24.775Z,84.43
2023-01-13T04:05:54.773Z,84.28
2023-01-13T04:08:24.543Z,84.16
2023-01-13T04:11:18.484Z,84.46
2023-01-13T04:13:46.934Z,84.46
2023-01-13T04:16:13.952Z,84.71
2023-01-13T04:18:40.822Z,84.96
2023-01-13T04:21:08.082Z,84.86
2023-01-13T04:23:34.846Z,84.69
2023-01-13T04:26:01.578Z,84.64
2023-01-13T04:28:28.335Z,84.05
2023-01-13T04:30:55.057Z,84.01
2023-01-13T04:33:21.806Z,84.46
2023-01-13T04:35:48.844Z,84.45
2023-01-13T04:38:17.752Z,83.87
2023-01-13T04:40:44.751Z,83.86
2023-01-13T04:43:11.891Z,83.86
2023-01-13T04:45:39.192Z,83.84
2023-01-13T04:48:06.241Z,83.67
2023-01-13T04:50:33.133Z,83.91
2023-01-13T04:53:01.630Z,83.65
2023-01-13T04:55:28.561Z,84.42
2023-01-13T04:57:55.450Z,83.80
2023-01-13T05:00:23.669Z,83.90
2023-01-13T05:02:51.443Z,83.97
2023-01-13T05:05:18.438Z,84.12
2023-01-13T05:07:45.253Z,84.32
2023-01-13T05:10:12.436Z,84.38
2023-01-13T05:12:59.432Z,84.25
2023-01-13T05:15:44.498Z,84.09
2023-01-13T05:18:11.480Z,84.67
2023-01-13T05:20:38.383Z,84.94
2023-01-13T05:23:23.567Z,84.37
2023-01-13T05:25:50.405Z,84.52
2023-01-13T05:28:17.193Z,84.26
2023-01-13T05:30:46.162Z,84.37
2023-01-13T05:33:16.319Z,84.77
2023-01-13T05:35:44.653Z,85.02
2023-01-13T05:38:12.584Z,84.63
2023-01-13T05:40:59.613Z,85.07
2023-01-13T05:43:27.436Z,85.25
2023-01-13T05:46:00.287Z,85.34
2023-01-13T05:48:31.432Z,85.15
2023-01-13T05:50:58.368Z,85.30
2023-01-13T05:53:25.370Z,85.27
2023-01-13T05:55:53.063Z,85.44
2023-01-13T05:58:21.491Z,85.39
2023-01-13T06:00:48.299Z,85.89
2023-01-13T06:03:16.186Z,85.65
2023-01-13T06:05:43.536Z,85.92
2023-01-13T06:08:10.371Z,85.66
2023-01-13T06:10:37.206Z,85.30
2023-01-13T06:13:04.424Z,85.55
2023-01-13T06:15:31.694Z,85.11
2023-01-13T06:17:58.491Z,85.05
2023-01-13T06:20:25.366Z,85.21
2023-01-13T06:22:53.499Z,85.72
2023-01-13T06:25:28.813Z,85.76
2023-01-13T06:27:56.729Z,85.44
2023-01-13T06:30:28.179Z,85.40
2023-01-13T06:32:58.490Z,85.47
2023-01-13T06:35:33.217Z,85.68
2023-01-13T06:38:01.960Z,87.27
2023-01-13T06:40:28.936Z,86.02
2023-01-13T06:43:16.333Z,84.56
2023-01-13T06:45:47.042Z,84.68
2023-01-13T06:48:14.412Z,84.22
2023-01-13T06:50:42.307Z,83.75
2023-01-13T06:53:12.054Z,84.62
2023-01-13T06:55:40.614Z,84.05
2023-01-13T06:58:12.964Z,82.70
2023-01-13T07:00:58.134Z,82.37
2023-01-13T07:03:27.251Z,82.09
2023-01-13T07:05:58.032Z,81.54
2023-01-13T07:08:31.738Z,81.71
2023-01-13T07:11:04.768Z,81.99
2023-01-13T07:13:55.091Z,81.93
2023-01-13T07:16:26.306Z,81.46
2023-01-13T07:18:56.207Z,81.91
2023-01-13T07:21:25.361Z,82.32
2023-01-13T07:23:56.083Z,82.62
2023-01-13T07:26:24.309Z,82.71
2023-01-13T07:28:54.138Z,82.47
2023-01-13T07:31:25.312Z,82.60
2023-01-13T07:33:59.947Z,82.01
2023-01-13T07:36:29.881Z,81.94
2023-01-13T07:39:07.237Z,82.17
2023-01-13T07:41:58.673Z,81.40
2023-01-13T07:44:31.983Z,81.94
2023-01-13T07:47:02.178Z,81.95
2023-01-13T07:49:34.095Z,82.04
2023-01-13T07:52:02.080Z,81.52
2023-01-13T07:54:40.048Z,81.99
2023-01-13T07:57:15.614Z,82.06
2023-01-13T07:59:44.203Z,81.68
2023-01-13T08:02:14.720Z,81.82
2023-01-13T08:04:44.941Z,81.66
2023-01-13T08:07:13.796Z,81.69
2023-01-13T08:09:43.719Z,81.38
2023-01-13T08:12:32.146Z,81.63
2023-01-13T08:15:16.316Z,81.80
2023-01-13T08:18:02.523Z,81.34
2023-01-13T08:20:35.531Z,81.19
2023-01-13T08:23:07.332Z,80.84
2023-01-13T08:25:35.751Z,81.44
2023-01-13T08:28:02.813Z,80.27
2023-01-13T08:30:30.261Z,80.84
2023-01-13T08:32:57.271Z,81.26
2023-01-13T08:35:24.248Z,80.91
2023-01-13T08:37:51.069Z,80.91
2023-01-13T08:40:29.354Z,80.73
2023-01-13T08:43:00.103Z,80.18
2023-01-13T08:45:26.977Z,80.50
2023-01-13T08:47:53.814Z,80.21
2023-01-13T08:50:20.896Z,80.30
2023-01-13T08:52:47.690Z,80.91
2023-01-13T08:55:14.455Z,81.17
2023-01-13T08:57:41.203Z,81.66
2023-01-13T09:00:08.826Z,81.55
2023-01-13T09:02:35.622Z,81.84
2023-01-13T09:05:03.972Z,81.60
2023-01-13T09:07:31.228Z,81.86
2023-01-13T09:09:58.333Z,80.86
2023-01-13T09:12:43.691Z,80.51
2023-01-13T09:15:11.052Z,79.84
2023-01-13T09:17:37.767Z,78.29
2023-01-13T09:20:06.266Z,77.22
2023-01-13T09:22:35.541Z,76.39
2023-01-13T09:25:02.301Z,74.26
2023-01-13T09:27:29.064Z,73.68
2023-01-13T09:29:56.115Z,73.62
2023-01-13T09:32:22.838Z,74.06
2023-01-13T09:35:01.679Z,73.44
2023-01-13T09:37:32.979Z,73.33
2023-01-13T09:40:09.705Z,73.39
2023-01-13T09:43:17.395Z,74.13
2023-01-13T09:45:57.995Z,73.74
2023-01-13T09:48:51.722Z,74.18
2023-01-13T09:51:28.600Z,74.03
2023-01-13T09:54:03.490Z,73.62
2023-01-13T09:56:30.220Z,74.05
2023-01-13T09:58:57.637Z,73.26
2023-01-13T10:01:30.296Z,73.29
2023-01-13T10:03:57.854Z,73.02
2023-01-13T10:06:33.374Z,72.68
2023-01-13T10:09:01.420Z,72.50
2023-01-13T10:11:51.466Z,72.68
2023-01-13T10:14:34.557Z,71.63
2023-01-13T10:17:19.902Z,71.44
2023-01-13T10:19:46.647Z,71.48
2023-01-13T10:22:44.416Z,70.72
2023-01-13T10:25:29.692Z,71.28
2023-01-13T10:28:01.673Z,71.45
2023-01-13T10:30:34.232Z,71.37
2023-01-13T10:33:11.937Z,71.08
2023-01-13T10:35:58.024Z,70.69
2023-01-13T10:38:27.424Z,72.04
2023-01-13T10:41:01.312Z,72.38
2023-01-13T10:43:29.702Z,72.43
2023-01-13T10:46:00.829Z,72.43
2023-01-13T10:48:37.802Z,72.76
2023-01-13T10:51:10.603Z,73.10
2023-01-13T10:54:05.280Z,73.90
2023-01-13T10:56:33.754Z,74.23
2023-01-13T10:59:13.272Z,74.79
2023-01-13T11:01:54.811Z,75.09
2023-01-13T11:04:33.522Z,74.66
2023-01-13T11:07:01.316Z,74.37
2023-01-13T11:09:28.854Z,74.94
2023-01-13T11:11:56.575Z,75.57
2023-01-13T11:14:39.846Z,75.34
2023-01-13T11:17:29.200Z,75.77
2023-01-13T11:20:20.600Z,76.16
2023-01-13T11:22:51.307Z,76.39
2023-01-13T11:25:32.725Z,76.41
2023-01-13T11:28:14.351Z,77.21
2023-01-13T11:30:48.467Z,77.07
2023-01-13T11:33:26.825Z,77.41
2023-01-13T11:36:06.995Z,77.56
2023-01-13T11:38:40.043Z,76.60
2023-01-13T11:41:28.686Z,76.83
2023-01-13T11:44:00.527Z,77.23
2023-01-13T11:46:28.176Z,76.94
2023-01-13T11:48:56.432Z,77.55
2023-01-13T11:51:51.213Z,78.24
2023-01-13T11:54:24.373Z,78.37
2023-01-13T11:57:03.170Z,78.31
2023-01-13T11:59:48.272Z,79.13
2023-01-13T12:02:52.447Z,78.81
2023-01-13T12:05:34.122Z,79.52
2023-01-13T12:08:19.393Z,79.78
2023-01-13T12:11:11.831Z,79.77
2023-01-13T12:13:50.370Z,79.68
2023-01-13T12:16:31.437Z,79.97
2023-01-13T12:19:24.504Z,80.19
2023-01-13T12:22:01.981Z,79.84
2023-01-13T12:24:33.097Z,79.49
2023-01-13T12:27:12.127Z,79.44
2023-01-13T12:29:39.535Z,79.95
2023-01-13T12:32:11.669Z,79.44
2023-01-13T12:34:59.705Z,78.91
2023-01-13T12:37:35.065Z,78.79
2023-01-13T12:40:20.259Z,78.51
2023-01-13T12:43:07.693Z,78.25
2023-01-13T12:45:34.989Z,77.55
2023-01-13T12:48:01.815Z,76.79
2023-01-13T12:50:29.171Z,76.55
2023-01-13T12:53:00.277Z,76.37
2023-01-13T12:55:36.132Z,76.78
2023-01-13T12:58:05.847Z,77.06
2023-01-13T13:01:06.923Z,77.11
2023-01-13T13:03:35.374Z,76.74
2023-01-13T13:06:20.927Z,76.66
2023-01-13T13:09:06.441Z,76.75
2023-01-13T13:11:59.437Z,76.63
2023-01-13T13:14:41.402Z,76.65
2023-01-13T13:17:28.454Z,77.29
2023-01-13T13:20:00.208Z,77.28
2023-01-13T13:22:26.938Z,78.44
2023-01-13T13:24:57.595Z,78.99
2023-01-13T13:27:49.638Z,78.98
2023-01-13T13:30:41.272Z,79.91
2023-01-13T13:33:31.989Z,79.86
2023-01-13T13:36:17.401Z,80.14
2023-01-13T13:39:24.089Z,80.73
2023-01-13T13:42:12.681Z,81.00
2023-01-13T13:44:59.475Z,81.27
2023-01-13T13:47:26.273Z,81.61
2023-01-13T13:49:56.838Z,81.64
2023-01-13T13:52:43.045Z,81.89
2023-01-13T13:55:18.522Z,82.37
2023-01-13T13:57:50.481Z,82.32
2023-01-13T14:00:28.185Z,82.14
2023-01-13T14:02:58.577Z,82.20
2023-01-13T14:05:30.241Z,81.94
2023-01-13T14:07:59.994Z,81.76
2023-01-13T14:10:35.802Z,82.11
2023-01-13T14:13:13.948Z,82.49
2023-01-13T14:15:41.332Z,82.02
2023-01-13T14:18:14.500Z,82.20
2023-01-13T14:20:42.425Z,82.40
2023-01-13T14:23:17.098Z,82.90
2023-01-13T14:25:49.253Z,82.48
2023-01-13T14:28:26.965Z,82.84
2023-01-13T14:30:54.963Z,82.91
2023-01-13T14:33:34.915Z,83.43
2023-01-13T14:36:18.577Z,83.97
2023-01-13T14:38:47.941Z,83.89
2023-01-13T14:41:26.409Z,83.96
2023-01-13T14:43:57.183Z,84.38
2023-01-13T14:46:25.596Z,84.60
2023-01-13T14:48:59.841Z,84.61
2023-01-13T14:51:28.509Z,84.57
2023-01-13T14:53:55.524Z,84.95
2023-01-13T14:56:41.097Z,84.73
2023-01-13T14:59:45.411Z,84.94
2023-01-13T15:02:30.440Z,85.15
2023-01-13T15:05:24.115Z,85.08
2023-01-13T15:07:56.874Z,85.41
2023-01-13T15:10:26.398Z,85.31
2023-01-13T15:12:55.078Z,85.50
2023-01-13T15:15:35.613Z,85.49
2023-01-13T15:18:15.638Z,85.45
2023-01-13T15:20:42.613Z,85.50
2023-01-13T15:23:09.752Z,85.54
2023-01-13T15:25:42.822Z,85.39
2023-01-13T15:28:24.204Z,85.24
2023-01-13T15:30:52.093Z,85.50
2023-01-13T15:33:19.703Z,85.99
2023-01-13T15:35:50.756Z,85.77
2023-01-13T15:38:20.514Z,85.47
2023-01-13T15:40:48.565Z,85.25
2023-01-13T15:43:36.513Z,85.47
2023-01-13T15:46:24.366Z,84.89
2023-01-13T15:48:54.746Z,84.63
2023-01-13T15:51:21.876Z,84.63
2023-01-13T15:53:48.745Z,84.42
2023-01-13T15:56:26.534Z,84.50
2023-01-13T15:58:53.743Z,84.32
2023-01-13T16:01:21.832Z,84.44
2023-01-13T16:03:48.693Z,84.06
2023-01-13T16:06:21.079Z,84.14
2023-01-13T16:08:48.656Z,84.38
2023-01-13T16:11:16.307Z,84.72
2023-01-13T16:13:43.143Z,84.80
2023-01-13T16:16:20.936Z,84.60
2023-01-13T16:18:48.380Z,84.65
2023-01-13T16:21:16.442Z,84.52
2023-01-13T16:23:44.099Z,84.52
2023-01-13T16:26:19.775Z,84.70
2023-01-13T16:28:51.296Z,84.66
2023-01-13T16:31:32.241Z,84.35
2023-01-13T16:34:00.579Z,84.44
2023-01-13T16:36:28.382Z,83.82
2023-01-13T16:38:56.875Z,84.20
2023-01-13T16:41:24.992Z,84.01
2023-01-13T16:43:52.270Z,84.24
2023-01-13T16:46:27.482Z,84.35
2023-01-13T16:48:56.469Z,83.79
2023-01-13T16:51:24.355Z,83.73
2023-01-13T16:53:51.588Z,83.61
2023-01-13T16:56:27.131Z,83.25
2023-01-13T16:59:00.061Z,83.51
2023-01-13T17:01:29.378Z,83.24
2023-01-13T17:03:56.934Z,83.45
2023-01-13T17:06:37.177Z,83.26
2023-01-13T17:09:11.472Z,83.41
2023-01-13T17:11:38.215Z,83.39
2023-01-13T17:14:18.091Z,83.45
2023-01-13T17:16:45.795Z,82.75
2023-01-13T17:19:13.006Z,83.07
2023-01-13T17:21:39.790Z,82.93
2023-01-13T17:24:07.947Z,82.62
2023-01-13T17:26:37.271Z,82.39
2023-01-13T17:29:05.777Z,82.63
2023-01-13T17:31:32.889Z,82.78
2023-01-13T17:34:01.086Z,82.79
2023-01-13T17:36:28.208Z,82.39
2023-01-13T17:38:55.476Z,82.30
2023-01-13T17:41:23.406Z,81.95
2023-01-13T17:43:50.466Z,81.70
2023-01-13T17:46:18.547Z,81.63
2023-01-13T17:48:46.184Z,81.79
2023-01-13T17:51:14.771Z,81.69
2023-01-13T17:53:44.198Z,81.55
2023-01-13T17:56:12.832Z,81.77
2023-01-13T17:58:41.505Z,81.77
2023-01-13T18:01:19.380Z,81.81
2023-01-13T18:03:46.420Z,81.97
2023-01-13T18:06:17.543Z,81.94
2023-01-13T18:08:44.705Z,82.08
2023-01-13T18:11:11.670Z,81.59
2023-01-13T18:13:43.172Z,81.78
2023-01-13T18:16:11.539Z,81.78
2023-01-13T18:18:39.437Z,81.45
2023-01-13T18:21:25.310Z,81.40
2023-01-13T18:24:11.487Z,81.45
2023-01-13T18:26:56.672Z,81.12
2023-01-13T18:29:23.689Z,81.38
2023-01-13T18:31:52.424Z,81.26
2023-01-13T18:34:20.902Z,81.12
2023-01-13T18:36:47.926Z,80.82
2023-01-13T18:39:14.745Z,80.83
2023-01-13T18:42:00.380Z,80.69
2023-01-13T18:44:27.131Z,80.86
2023-01-13T18:46:53.888Z,80.87
2023-01-13T18:49:20.636Z,81.05
2023-01-13T18:51:47.356Z,80.69
2023-01-13T18:54:14.169Z,80.75
2023-01-13T18:56:41.126Z,80.75
2023-01-13T18:59:07.920Z,80.51
2023-01-13T19:01:37.002Z,80.22
2023-01-13T19:04:05.612Z,80.59
2023-01-13T19:06:33.783Z,80.90
2023-01-13T19:09:08.279Z,81.17
2023-01-13T19:11:38.728Z,81.07
2023-01-13T19:14:05.488Z,81.10
2023-01-13T19:16:32.257Z,80.77
2023-01-13T19:18:59.955Z,80.58
2023-01-13T19:21:26.688Z,80.17
2023-01-13T19:23:54.721Z,80.11
2023-01-13T19:26:21.693Z,80.26
2023-01-13T19:28:48.697Z,80.37
2023-01-13T19:31:20.316Z,80.68
2023-01-13T19:33:47.366Z,80.64
2023-01-13T19:36:14.116Z,80.64
2023-01-13T19:38:41.090Z,80.74
2023-01-13T19:41:28.091Z,80.54
2023-01-13T19:44:14.793Z,80.40
2023-01-13T19:46:41.803Z,80.48
2023-01-13T19:49:10.435Z,80.70
2023-01-13T19:51:37.251Z,80.70
2023-01-13T19:54:04.157Z,80.83
2023-01-13T19:56:30.935Z,80.85
2023-01-13T19:58:57.692Z,80.85
2023-01-13T20:01:31.703Z,80.85
2023-01-13T20:04:03.294Z,80.76
2023-01-13T20:06:31.752Z,81.11
2023-01-13T20:08:59.387Z,81.28
2023-01-13T20:11:31.469Z,81.04
2023-01-13T20:13:59.313Z,81.06
2023-01-13T20:16:27.051Z,81.11
2023-01-13T20:18:54.347Z,81.18
2023-01-13T20:21:21.497Z,80.97
2023-01-13T20:23:52.044Z,81.03
2023-01-13T20:26:19.981Z,81.15
2023-01-13T20:28:47.491Z,81.38
2023-01-13T20:31:14.940Z,81.51
2023-01-13T20:33:42.427Z,81.53
2023-01-13T20:36:20.537Z,81.44
2023-01-13T20:38:48.734Z,81.68
2023-01-13T20:41:33.945Z,82.72
2023-01-13T20:44:00.862Z,82.96
2023-01-13T20:46:28.045Z,82.28
2023-01-13T20:48:54.962Z,83.03
2023-01-13T20:51:21.757Z,83.28
2023-01-13T20:53:48.520Z,83.88
2023-01-13T20:56:15.508Z,84.26
2023-01-13T20:58:43.912Z,84.06
2023-01-13T21:01:10.769Z,84.29
2023-01-13T21:03:37.602Z,84.12
2023-01-13T21:06:04.698Z,83.96
2023-01-13T21:08:31.521Z,84.55
2023-01-13T21:11:04.504Z,84.74
2023-01-13T21:13:51.020Z,84.06
2023-01-13T21:16:17.781Z,83.55
2023-01-13T21:19:03.128Z,84.29
2023-01-13T21:21:29.999Z,84.15
2023-01-13T21:23:56.746Z,84.06
2023-01-13T21:26:23.569Z,83.65
2023-01-13T21:28:50.554Z,83.71
2023-01-13T21:31:18.172Z,83.71
2023-01-13T21:33:47.582Z,84.14
2023-01-13T21:36:15.101Z,84.24
2023-01-13T21:38:42.204Z,84.46
2023-01-13T21:41:09.824Z,84.36
2023-01-13T21:43:56.049Z,84.83
2023-01-13T21:46:42.457Z,84.58
2023-01-13T21:49:09.634Z,84.56
2023-01-13T21:51:36.630Z,84.55
2023-01-13T21:54:03.466Z,85.17
2023-01-13T21:56:30.271Z,84.98
2023-01-13T21:58:56.970Z,85.20
2023-01-13T22:01:23.988Z,84.95
2023-01-13T22:04:09.280Z,84.68
2023-01-13T22:06:36.073Z,85.31
2023-01-13T22:09:02.847Z,84.94
2023-01-13T22:11:29.804Z,85.00
2023-01-13T22:14:05.503Z,84.90
2023-01-13T22:16:39.273Z,84.67
2023-01-13T22:19:07.131Z,84.59
2023-01-13T22:21:34.439Z,84.25
2023-01-13T22:24:01.775Z,84.43
2023-01-13T22:26:28.819Z,84.69
2023-01-13T22:28:55.534Z,84.32
2023-01-13T22:31:23.791Z,84.46
2023-01-13T22:33:54.919Z,84.65
2023-01-13T22:36:23.906Z,84.64
2023-01-13T22:38:58.437Z,84.63
2023-01-13T22:41:25.409Z,84.30
2023-01-13T22:43:52.137Z,84.41
2023-01-13T22:46:18.991Z,84.39
2023-01-13T22:48:48.203Z,84.72
2023-01-13T22:51:16.872Z,84.64
2023-01-13T22:53:43.767Z,84.61
2023-01-13T22:56:19.543Z,84.84
2023-01-13T22:58:46.306Z,85.48
2023-01-13T23:01:15.899Z,85.80
2023-01-13T23:03:46.274Z,85.90
2023-01-13T23:06:13.285Z,86.31
2023-01-13T23:08:40.131Z,86.23
2023-01-13T23:11:08.645Z,86.09
2023-01-13T23:13:37.863Z,86.27
2023-01-13T23:16:06.654Z,86.15
2023-01-13T23:18:34.056Z,86.11
2023-01-13T23:21:07.773Z,86.38
2023-01-13T23:23:34.856Z,86.76
2023-01-13T23:26:01.941Z,86.74
2023-01-13T23:28:28.914Z,86.73
2023-01-13T23:30:55.751Z,86.78
2023-01-13T23:33:22.565Z,86.53
2023-01-13T23:36:03.739Z,86.74
2023-01-13T23:38:31.197Z,86.53
2023-01-13T23:40:58.351Z,86.78
2023-01-13T23:43:28.248Z,86.80
2023-01-13T23:46:02.766Z,86.39
2023-01-13T23:48:29.641Z,86.53
2023-01-13T23:51:00.918Z,86.77
2023-01-13T23:53:39.934Z,86.61
2023-01-13T23:56:10.234Z,85.92
2023-01-13T23:58:36.945Z,86.08
